createdAt,value
2022-09-12T00:01:54.548Z,100.00
2022-09-12T00:04:21.435Z,100.00
2022-09-12T00:06:48.143Z,100.00
2022-09-12T00:09:15.153Z,100.00
2022-09-12T00:11:44.706Z,100.00
2022-09-12T00:14:15.620Z,100.00
2022-09-12T00:16:42.974Z,100.00
2022-09-12T00:19:10.204Z,100.00
2022-09-12T00:21:38.741Z,100.00
2022-09-12T00:24:05.870Z,100.00
2022-09-12T00:26:33.029Z,100.00
2022-09-12T00:28:59.910Z,100.00
2022-09-12T00:31:27.322Z,100.00
2022-09-12T00:33:58.242Z,100.00
2022-09-12T00:36:26.169Z,100.00
2022-09-12T00:38:54.683Z,100.00
2022-09-12T00:41:24.684Z,100.00
2022-09-12T00:43:54.125Z,100.00
2022-09-12T00:46:29.658Z,100.00
2022-09-12T00:49:05.023Z,100.00
2022-09-12T00:51:34.310Z,100.00
2022-09-12T00:54:06.102Z,100.00
2022-09-12T00:56:33.106Z,100.00
2022-09-12T00:59:14.855Z,100.00
2022-09-12T01:01:43.585Z,100.00
2022-09-12T01:04:12.989Z,100.00
2022-09-12T01:06:43.367Z,100.00
2022-09-12T01:09:14.585Z,100.00
2022-09-12T01:11:42.656Z,100.00
2022-09-12T01:14:09.466Z,100.00
2022-09-12T01:16:37.501Z,100.00
2022-09-12T01:19:18.735Z,100.00
2022-09-12T01:22:20.459Z,100.00
2022-09-12T01:25:21.680Z,100.00
2022-09-12T01:28:10.048Z,100.00
2022-09-12T01:30:56.163Z,100.00
2022-09-12T01:33:38.180Z,100.00
2022-09-12T01:36:29.012Z,100.00
2022-09-12T01:39:14.129Z,100.00
2022-09-12T01:41:50.302Z,100.00
2022-09-12T01:44:45.278Z,100.00
2022-09-12T01:47:19.514Z,100.00
2022-09-12T01:49:48.787Z,100.00
2022-09-12T01:52:22.773Z,100.00
2022-09-12T01:55:09.864Z,100.00
2022-09-12T01:58:08.649Z,100.00
2022-09-12T02:00:43.989Z,100.00
2022-09-12T02:03:45.144Z,100.00
2022-09-12T02:06:41.911Z,100.00
2022-09-12T02:09:24.472Z,100.00
2022-09-12T02:11:55.493Z,100.00
2022-09-12T02:14:26.704Z,100.00
2022-09-12T02:16:58.921Z,100.00
2022-09-12T02:19:34.349Z,100.00
2022-09-12T02:22:03.638Z,100.00
2022-09-12T02:24:43.797Z,100.00
2022-09-12T02:27:19.801Z,100.00
2022-09-12T02:29:47.342Z,100.00
2022-09-12T02:32:46.747Z,100.00
2022-09-12T02:35:38.108Z,100.00
2022-09-12T02:38:13.267Z,100.00
2022-09-12T02:40:40.903Z,100.00
2022-09-12T02:43:07.906Z,100.00
2022-09-12T02:45:36.379Z,100.00
2022-09-12T02:48:34.631Z,100.00
2022-09-12T02:51:02.565Z,100.00
2022-09-12T02:53:29.638Z,100.00
2022-09-12T02:55:56.463Z,100.00
2022-09-12T02:58:27.189Z,100.00
2022-09-12T03:01:02.884Z,100.00
2022-09-12T03:03:52.355Z,100.00
2022-09-12T03:06:41.857Z,100.00
2022-09-12T03:09:25.534Z,100.00
2022-09-12T03:12:21.568Z,100.00
2022-09-12T03:15:08.084Z,100.00
2022-09-12T03:17:38.248Z,100.00
2022-09-12T03:20:16.981Z,100.00
2022-09-12T03:23:02.309Z,100.00
2022-09-12T03:25:34.857Z,100.00
2022-09-12T03:28:15.637Z,100.00
2022-09-12T03:30:45.458Z,100.00
2022-09-12T03:33:18.306Z,100.00
2022-09-12T03:35:46.701Z,100.00
2022-09-12T03:38:13.628Z,100.00
2022-09-12T03:40:40.685Z,100.00
2022-09-12T03:43:08.862Z,100.00
2022-09-12T03:45:36.990Z,100.00
2022-09-12T03:48:06.544Z,100.00
2022-09-12T03:50:33.930Z,100.00
2022-09-12T03:53:00.716Z,100.00
2022-09-12T03:55:27.623Z,100.00
2022-09-12T03:57:55.099Z,100.00
2022-09-12T04:00:22.036Z,100.00
2022-09-12T04:02:48.735Z,100.00
2022-09-12T04:05:15.448Z,100.00
2022-09-12T04:07:42.022Z,100.00
2022-09-12T04:10:09.762Z,100.00
2022-09-12T04:12:36.512Z,100.00
2022-09-12T04:15:03.329Z,100.00
2022-09-12T04:17:30.027Z,100.00
2022-09-12T04:19:56.621Z,100.00
2022-09-12T04:22:23.515Z,100.00
2022-09-12T04:24:50.645Z,100.00
2022-09-12T04:27:17.382Z,100.00
2022-09-12T04:29:44.030Z,100.00
2022-09-12T04:32:10.861Z,100.00
2022-09-12T04:34:37.671Z,100.00
2022-09-12T04:37:04.701Z,100.00
2022-09-12T04:39:31.442Z,100.00
2022-09-12T04:41:58.195Z,100.00
2022-09-12T04:44:24.842Z,100.00
2022-09-12T04:46:52.823Z,100.00
2022-09-12T04:49:19.571Z,100.00
2022-09-12T04:51:46.882Z,100.00
2022-09-12T04:54:19.493Z,100.00
2022-09-12T04:56:49.038Z,100.00
2022-09-12T04:59:17.645Z,100.00
2022-09-12T05:01:44.916Z,100.00
2022-09-12T05:04:13.240Z,100.00
2022-09-12T05:06:41.466Z,100.00
2022-09-12T05:09:14.184Z,100.00
2022-09-12T05:14:31.127Z,100.00
2022-09-12T05:17:00.799Z,100.00
2022-09-12T05:19:28.586Z,100.00
2022-09-12T05:21:55.252Z,100.00
2022-09-12T05:24:22.372Z,100.00
2022-09-12T05:26:49.069Z,100.00
2022-09-12T05:29:15.798Z,100.00
2022-09-12T05:31:42.613Z,100.00
2022-09-12T05:34:10.328Z,100.00
2022-09-12T05:36:38.745Z,100.00
2022-09-12T05:39:05.811Z,100.00
2022-09-12T05:41:34.008Z,100.00
2022-09-12T05:44:03.626Z,100.00
2022-09-12T05:46:42.905Z,100.00
2022-09-12T05:49:12.187Z,100.00
2022-09-12T05:51:42.129Z,100.00
2022-09-12T05:54:12.282Z,100.00
2022-09-12T05:56:44.123Z,100.00
2022-09-12T05:59:15.500Z,100.00
2022-09-12T06:01:42.816Z,100.00
2022-09-12T06:04:09.672Z,100.00
2022-09-12T06:06:42.128Z,100.00
2022-09-12T06:09:09.464Z,100.00
2022-09-12T06:11:38.026Z,100.00
2022-09-12T06:14:05.192Z,100.00
2022-09-12T06:16:34.316Z,100.00
2022-09-12T06:19:07.176Z,100.00
2022-09-12T06:21:35.454Z,100.00
2022-09-12T06:24:02.611Z,100.00
2022-09-12T06:26:30.131Z,100.00
2022-09-12T06:28:59.865Z,100.00
2022-09-12T06:31:33.313Z,100.00
2022-09-12T06:34:02.471Z,100.00
2022-09-12T06:36:31.766Z,100.00
2022-09-12T06:39:04.290Z,100.00
2022-09-12T06:41:31.597Z,100.00
2022-09-12T06:43:59.464Z,100.00
2022-09-12T06:46:26.794Z,100.00
2022-09-12T06:48:55.719Z,100.00
2022-09-12T06:51:22.766Z,100.00
2022-09-12T06:53:50.242Z,100.00
2022-09-12T06:56:19.326Z,100.00
2022-09-12T06:58:47.998Z,100.00
2022-09-12T07:01:17.249Z,100.00
2022-09-12T07:03:48.925Z,100.00
2022-09-12T07:06:17.537Z,100.00
2022-09-12T07:08:44.810Z,100.00
2022-09-12T07:11:25.183Z,100.00
2022-09-12T07:13:56.209Z,100.00
2022-09-12T07:16:23.907Z,100.00
2022-09-12T07:18:52.779Z,100.00
2022-09-12T07:21:19.703Z,100.00
2022-09-12T07:23:46.951Z,100.00
2022-09-12T07:26:15.536Z,100.00
2022-09-12T07:28:42.810Z,100.00
2022-09-12T07:31:15.243Z,100.00
2022-09-12T07:33:43.088Z,100.00
2022-09-12T07:36:16.266Z,100.00
2022-09-12T07:38:44.115Z,100.00
2022-09-12T07:41:15.575Z,100.00
2022-09-12T07:43:42.340Z,100.00
2022-09-12T07:46:10.011Z,100.00
2022-09-12T07:48:38.136Z,100.00
2022-09-12T07:51:10.122Z,100.00
2022-09-12T07:53:41.491Z,100.00
2022-09-12T07:56:12.924Z,100.00
2022-09-12T07:58:41.107Z,100.00
2022-09-12T08:01:19.121Z,100.00
2022-09-12T08:03:48.838Z,100.00
2022-09-12T08:06:20.666Z,100.00
2022-09-12T08:08:48.892Z,100.00
2022-09-12T08:11:18.207Z,100.00
2022-09-12T08:13:45.959Z,100.00
2022-09-12T08:16:21.129Z,100.00
2022-09-12T08:18:48.948Z,100.00
2022-09-12T08:21:22.522Z,100.00
2022-09-12T08:23:56.400Z,100.00
2022-09-12T08:26:23.632Z,100.00
2022-09-12T08:28:50.831Z,100.00
2022-09-12T08:31:20.358Z,100.00
2022-09-12T08:33:47.714Z,100.00
2022-09-12T08:36:21.432Z,100.00
2022-09-12T08:38:50.295Z,100.00
2022-09-12T08:41:39.870Z,100.00
2022-09-12T08:44:44.396Z,100.00
2022-09-12T08:47:29.033Z,100.00
2022-09-12T08:49:55.721Z,100.00
2022-09-12T08:52:41.116Z,100.00
2022-09-12T08:55:37.540Z,100.00
2022-09-12T08:58:23.122Z,100.00
2022-09-12T09:00:59.607Z,100.00
2022-09-12T09:03:48.207Z,100.00
2022-09-12T09:06:52.475Z,100.00
2022-09-12T09:09:22.253Z,100.00
2022-09-12T09:12:10.835Z,100.00
2022-09-12T09:14:49.325Z,100.00
2022-09-12T09:17:25.312Z,100.00
2022-09-12T09:19:58.588Z,100.00
2022-09-12T09:22:31.027Z,100.00
2022-09-12T09:25:03.300Z,100.00
2022-09-12T09:27:58.804Z,100.00
2022-09-12T09:30:25.482Z,100.00
2022-09-12T09:32:59.858Z,100.00
2022-09-12T09:35:32.107Z,100.00
2022-09-12T09:38:19.507Z,100.00
2022-09-12T09:40:54.472Z,100.00
2022-09-12T09:43:29.057Z,100.00
2022-09-12T09:45:58.468Z,100.00
2022-09-12T09:48:30.374Z,100.00
2022-09-12T09:51:00.456Z,100.00
2022-09-12T09:53:48.615Z,100.00
2022-09-12T09:56:37.107Z,100.00
2022-09-12T09:59:11.918Z,100.00
2022-09-12T10:01:51.605Z,100.00
2022-09-12T10:04:27.430Z,100.00
2022-09-12T10:06:57.306Z,100.00
2022-09-12T10:09:36.175Z,100.00
2022-09-12T10:12:22.349Z,100.00
2022-09-12T10:15:00.758Z,100.00
2022-09-12T10:17:39.583Z,100.00
2022-09-12T10:20:31.243Z,100.00
2022-09-12T10:23:15.714Z,100.00
2022-09-12T10:25:47.836Z,100.00
2022-09-12T10:28:27.212Z,100.00
2022-09-12T10:30:56.259Z,100.00
2022-09-12T10:33:26.466Z,99.24
2022-09-12T10:35:56.097Z,95.66
2022-09-12T10:38:27.636Z,89.87
2022-09-12T10:41:07.426Z,86.83
2022-09-12T10:43:34.031Z,84.82
2022-09-12T10:46:20.881Z,85.73
2022-09-12T10:48:52.339Z,84.61
2022-09-12T10:51:24.936Z,82.64
2022-09-12T10:54:02.103Z,80.68
2022-09-12T10:56:32.740Z,77.25
2022-09-12T10:59:36.612Z,73.94
2022-09-12T11:02:12.513Z,72.63
2022-09-12T11:04:58.217Z,71.20
2022-09-12T11:07:47.381Z,67.98
2022-09-12T11:10:43.738Z,69.49
2022-09-12T11:13:43.075Z,70.14
2022-09-12T11:16:23.153Z,67.46
2022-09-12T11:19:11.597Z,70.28
2022-09-12T11:21:50.020Z,71.96
2022-09-12T11:24:32.113Z,67.47
2022-09-12T11:27:28.577Z,64.74
2022-09-12T11:30:02.039Z,63.23
2022-09-12T11:32:52.386Z,62.48
2022-09-12T11:35:41.835Z,64.72
2022-09-12T11:38:08.948Z,65.15
2022-09-12T11:40:48.699Z,64.92
2022-09-12T11:43:45.975Z,61.96
2022-09-12T11:46:31.817Z,60.81
2022-09-12T11:49:07.051Z,57.63
2022-09-12T11:51:52.682Z,58.83
2022-09-12T11:54:23.345Z,57.55
2022-09-12T11:56:55.821Z,56.60
2022-09-12T11:59:40.986Z,54.47
2022-09-12T12:02:15.125Z,52.97
2022-09-12T12:04:59.737Z,54.21
2022-09-12T12:07:26.550Z,51.99
2022-09-12T12:09:53.629Z,52.23
2022-09-12T12:12:25.036Z,51.51
2022-09-12T12:14:54.844Z,52.25
2022-09-12T12:17:24.348Z,51.43
2022-09-12T12:20:08.376Z,50.07
2022-09-12T12:22:36.134Z,50.37
2022-09-12T12:25:07.668Z,52.42
2022-09-12T12:28:01.442Z,50.61
2022-09-12T12:30:31.195Z,49.40
2022-09-12T12:33:10.674Z,50.59
2022-09-12T12:35:43.442Z,48.58
2022-09-12T12:38:36.540Z,47.04
2022-09-12T12:41:18.723Z,47.39
2022-09-12T12:43:50.864Z,46.16
2022-09-12T12:46:21.087Z,46.18
2022-09-12T12:49:27.676Z,47.09
2022-09-12T12:51:54.545Z,46.96
2022-09-12T12:54:44.530Z,47.33
2022-09-12T12:57:19.106Z,49.09
2022-09-12T12:59:50.893Z,49.51
2022-09-12T13:02:32.240Z,52.30
2022-09-12T13:05:02.952Z,52.82
2022-09-12T13:07:39.617Z,57.99
2022-09-12T13:10:08.046Z,54.22
2022-09-12T13:12:38.502Z,52.28
2022-09-12T13:15:37.072Z,51.15
2022-09-12T13:18:13.256Z,49.38
2022-09-12T13:20:52.454Z,48.37
2022-09-12T13:23:32.705Z,46.11
2022-09-12T13:26:00.865Z,44.70
2022-09-12T13:28:29.628Z,44.54
2022-09-12T13:31:03.339Z,44.53
2022-09-12T13:33:45.414Z,44.37
2022-09-12T13:36:33.807Z,44.10
2022-09-12T13:39:06.642Z,44.08
2022-09-12T13:41:39.839Z,43.79
2022-09-12T13:44:13.309Z,43.14
2022-09-12T13:46:40.551Z,43.93
2022-09-12T13:49:27.352Z,42.35
2022-09-12T13:52:04.697Z,42.24
2022-09-12T13:54:34.014Z,43.89
2022-09-12T13:57:00.830Z,43.69
2022-09-12T13:59:28.085Z,45.49
2022-09-12T14:01:54.954Z,45.91
2022-09-12T14:04:45.433Z,46.16
2022-09-12T14:07:20.290Z,45.79
2022-09-12T14:09:55.163Z,43.35
2022-09-12T14:12:29.577Z,43.59
2022-09-12T14:14:56.502Z,44.08
2022-09-12T14:17:36.285Z,43.51
2022-09-12T14:20:07.454Z,42.79
2022-09-12T14:22:35.852Z,43.81
2022-09-12T14:25:03.872Z,43.07
2022-09-12T14:27:43.216Z,42.97
2022-09-12T14:30:35.219Z,43.68
2022-09-12T14:33:22.322Z,46.90
2022-09-12T14:35:51.710Z,46.56
2022-09-12T14:38:50.474Z,48.08
2022-09-12T14:41:30.165Z,48.27
2022-09-12T14:44:01.491Z,48.37
2022-09-12T14:46:35.637Z,49.07
2022-09-12T14:49:26.968Z,48.68
2022-09-12T14:52:00.119Z,50.12
2022-09-12T14:54:30.309Z,48.79
2022-09-12T14:57:04.232Z,47.66
2022-09-12T14:59:36.655Z,46.94
2022-09-12T15:02:21.892Z,46.61
2022-09-12T15:04:51.733Z,45.41
2022-09-12T15:07:34.858Z,44.42
2022-09-12T15:10:17.539Z,45.46
2022-09-12T15:12:44.334Z,45.47
2022-09-12T15:15:19.436Z,45.06
2022-09-12T15:17:46.550Z,45.15
2022-09-12T15:20:14.574Z,46.04
2022-09-12T15:22:42.410Z,46.66
2022-09-12T15:25:12.500Z,47.37
2022-09-12T15:27:41.003Z,46.85
2022-09-12T15:30:10.397Z,46.71
2022-09-12T15:32:37.512Z,46.78
2022-09-12T15:35:10.242Z,47.58
2022-09-12T15:37:36.948Z,46.63
2022-09-12T15:40:05.092Z,47.97
2022-09-12T15:42:32.223Z,48.34
2022-09-12T15:45:02.618Z,49.03
2022-09-12T15:47:29.583Z,50.09
2022-09-12T15:49:56.220Z,50.41
2022-09-12T15:52:22.894Z,49.85
2022-09-12T15:54:49.608Z,50.61
2022-09-12T15:57:16.338Z,49.74
2022-09-12T15:59:43.171Z,49.92
2022-09-12T16:02:11.720Z,49.64
2022-09-12T16:04:38.567Z,50.28
2022-09-12T16:07:05.538Z,51.30
2022-09-12T16:09:32.254Z,51.69
2022-09-12T16:11:58.887Z,52.41
2022-09-12T16:14:25.549Z,51.51
2022-09-12T16:16:54.451Z,52.51
2022-09-12T16:19:21.639Z,53.80
2022-09-12T16:21:49.547Z,53.73
2022-09-12T16:24:16.641Z,53.13
2022-09-12T16:26:43.460Z,53.30
2022-09-12T16:29:13.188Z,54.42
2022-09-12T16:31:40.219Z,55.35
2022-09-12T16:34:07.472Z,57.34
2022-09-12T16:36:34.720Z,58.95
2022-09-12T16:39:01.619Z,60.10
2022-09-12T16:41:28.541Z,62.73
2022-09-12T16:43:55.734Z,64.00
2022-09-12T16:46:26.209Z,65.07
2022-09-12T16:48:55.319Z,66.69
2022-09-12T16:51:26.206Z,69.85
2022-09-12T16:53:54.921Z,72.56
2022-09-12T16:56:22.294Z,71.15
2022-09-12T16:58:50.637Z,72.88
2022-09-12T17:01:23.485Z,73.42
2022-09-12T17:03:57.097Z,73.66
2022-09-12T17:06:25.300Z,73.45
2022-09-12T17:08:53.798Z,75.56
2022-09-12T17:11:26.815Z,76.80
2022-09-12T17:14:11.333Z,77.69
2022-09-12T17:16:40.749Z,81.04
2022-09-12T17:19:08.782Z,82.54
2022-09-12T17:21:35.700Z,84.55
2022-09-12T17:24:03.483Z,86.63
2022-09-12T17:26:30.284Z,88.33
2022-09-12T17:28:57.991Z,88.01
2022-09-12T17:31:24.974Z,92.74
2022-09-12T17:33:56.461Z,93.49
2022-09-12T17:36:23.311Z,96.36
2022-09-12T17:38:51.913Z,97.08
2022-09-12T17:41:22.695Z,99.45
2022-09-12T17:43:52.138Z,100.00
2022-09-12T17:46:19.953Z,100.00
2022-09-12T17:48:55.614Z,100.00
2022-09-12T17:51:25.018Z,100.00
2022-09-12T17:54:21.454Z,100.00
2022-09-12T17:56:52.228Z,100.00
2022-09-12T17:59:22.990Z,100.00
2022-09-12T18:02:08.431Z,100.00
2022-09-12T18:04:35.606Z,100.00
2022-09-12T18:07:02.242Z,100.00
2022-09-12T18:09:30.669Z,100.00
2022-09-12T18:11:57.749Z,100.00
2022-09-12T18:14:27.447Z,100.00
2022-09-12T18:16:54.367Z,100.00
2022-09-12T18:19:21.126Z,100.00
2022-09-12T18:21:47.887Z,100.00
2022-09-12T18:24:15.943Z,100.00
2022-09-12T18:26:44.684Z,100.00
2022-09-12T18:29:12.933Z,100.00
2022-09-12T18:31:40.175Z,100.00
2022-09-12T18:34:15.809Z,100.00
2022-09-12T18:36:43.677Z,100.00
2022-09-12T18:39:11.533Z,100.00
2022-09-12T18:41:39.210Z,100.00
2022-09-12T18:44:07.138Z,100.00
2022-09-12T18:46:35.197Z,100.00
2022-09-12T18:49:02.466Z,100.00
2022-09-12T18:51:33.659Z,100.00
2022-09-12T18:54:06.554Z,100.00
2022-09-12T18:56:35.216Z,100.00
2022-09-12T18:59:03.673Z,100.00
2022-09-12T19:01:33.544Z,100.00
2022-09-12T19:04:06.533Z,100.00
2022-09-12T19:06:41.829Z,100.00
2022-09-12T19:09:10.256Z,100.00
2022-09-12T19:11:39.314Z,100.00
2022-09-12T19:14:07.373Z,100.00
2022-09-12T19:16:34.730Z,100.00
2022-09-12T19:19:02.700Z,100.00
2022-09-12T19:21:31.411Z,100.00
2022-09-12T19:24:01.338Z,100.00
2022-09-12T19:26:28.549Z,100.00
2022-09-12T19:28:56.281Z,100.00
2022-09-12T19:31:24.498Z,100.00
2022-09-12T19:33:54.664Z,100.00
2022-09-12T19:36:43.920Z,100.00
2022-09-12T19:39:09.325Z,100.00
2022-09-12T19:41:36.751Z,100.00
2022-09-12T19:44:04.516Z,100.00
2022-09-12T19:46:31.365Z,100.00
2022-09-12T19:48:58.120Z,100.00
2022-09-12T19:51:25.330Z,100.00
2022-09-12T19:53:52.544Z,100.00
2022-09-12T19:56:19.870Z,100.00
2022-09-12T19:58:53.508Z,100.00
2022-09-12T20:01:25.137Z,100.00
2022-09-12T20:03:55.186Z,100.00
2022-09-12T20:06:22.552Z,100.00
2022-09-12T20:08:49.687Z,100.00
2022-09-12T20:11:19.154Z,100.00
2022-09-12T20:13:46.809Z,100.00
2022-09-12T20:16:22.345Z,100.00
2022-09-12T20:18:54.734Z,100.00
2022-09-12T20:21:25.532Z,100.00
2022-09-12T20:23:52.719Z,100.00
2022-09-12T20:26:20.494Z,100.00
2022-09-12T20:28:47.792Z,100.00
2022-09-12T20:31:16.117Z,100.00
2022-09-12T20:33:43.984Z,100.00
2022-09-12T20:36:14.578Z,100.00
2022-09-12T20:38:42.816Z,100.00
2022-09-12T20:41:11.027Z,100.00
2022-09-12T20:43:41.106Z,100.00
2022-09-12T20:46:11.506Z,100.00
2022-09-12T20:48:39.211Z,100.00
2022-09-12T20:51:07.599Z,100.00
2022-09-12T20:53:35.405Z,100.00
2022-09-12T20:56:05.362Z,100.00
2022-09-12T20:58:32.482Z,100.00
2022-09-12T21:01:06.834Z,100.00
2022-09-12T21:03:37.824Z,100.00
2022-09-12T21:06:08.250Z,100.00
2022-09-12T21:08:36.169Z,100.00
2022-09-12T21:11:03.575Z,100.00
2022-09-12T21:13:30.599Z,100.00
2022-09-12T21:16:10.966Z,100.00
2022-09-12T21:18:38.587Z,100.00
2022-09-12T21:21:06.369Z,100.00
2022-09-12T21:23:34.797Z,100.00
2022-09-12T21:26:02.748Z,100.00
2022-09-12T21:28:30.173Z,100.00
2022-09-12T21:30:57.424Z,100.00
2022-09-12T21:33:24.361Z,100.00
2022-09-12T21:35:51.290Z,100.00
2022-09-12T21:38:19.297Z,100.00
2022-09-12T21:40:46.880Z,100.00
2022-09-12T21:43:14.156Z,100.00
2022-09-12T21:45:41.018Z,100.00
2022-09-12T21:48:07.742Z,100.00
2022-09-12T21:50:34.678Z,100.00
2022-09-12T21:53:02.410Z,100.00
2022-09-12T21:55:29.450Z,100.00
2022-09-12T21:57:56.625Z,100.00
2022-09-12T22:00:23.563Z,100.00
2022-09-12T22:02:50.287Z,100.00
2022-09-12T22:05:17.444Z,100.00
2022-09-12T22:07:44.664Z,100.00
2022-09-12T22:10:11.465Z,100.00
2022-09-12T22:12:40.708Z,100.00
2022-09-12T22:15:36.268Z,100.00
2022-09-12T22:17:57.430Z,100.00
2022-09-12T22:20:24.310Z,100.00
2022-09-12T22:23:09.595Z,100.00
2022-09-12T22:25:36.611Z,100.00
2022-09-12T22:28:03.496Z,100.00
2022-09-12T22:30:30.279Z,100.00
2022-09-12T22:32:57.210Z,100.00
2022-09-12T22:35:23.982Z,100.00
2022-09-12T22:37:50.578Z,100.00
2022-09-12T22:40:17.559Z,100.00
2022-09-12T22:42:44.240Z,100.00
2022-09-12T22:45:11.498Z,100.00
2022-09-12T22:47:38.417Z,100.00
2022-09-12T22:50:05.586Z,100.00
2022-09-12T22:52:32.325Z,100.00
2022-09-12T22:54:59.255Z,100.00
2022-09-12T22:57:25.934Z,100.00
2022-09-12T22:59:52.548Z,100.00
2022-09-12T23:02:19.188Z,100.00
2022-09-12T23:04:46.827Z,100.00
2022-09-12T23:07:13.515Z,100.00
2022-09-12T23:09:40.192Z,100.00
2022-09-12T23:12:07.050Z,100.00
2022-09-12T23:14:34.263Z,100.00
2022-09-12T23:17:01.138Z,100.00
2022-09-12T23:19:27.911Z,100.00
2022-09-12T23:21:54.578Z,100.00
2022-09-12T23:24:21.484Z,100.00
2022-09-12T23:26:48.276Z,100.00
2022-09-12T23:29:15.393Z,100.00
2022-09-12T23:31:42.201Z,100.00
2022-09-12T23:34:10.216Z,100.00
2022-09-12T23:36:37.054Z,100.00
2022-09-12T23:39:04.020Z,100.00
2022-09-12T23:41:31.211Z,100.00
2022-09-12T23:43:57.958Z,100.00
2022-09-12T23:46:24.620Z,100.00
2022-09-12T23:48:53.266Z,100.00
2022-09-12T23:51:21.893Z,100.00
2022-09-12T23:53:50.165Z,100.00
2022-09-12T23:56:17.030Z,100.00
2022-09-12T23:58:43.854Z,100.00
